sensor_id;sensor_type;location;lat;lon;timestamp;P1;durP1;ratioP1;P2;durP2;ratioP2
59189;SDS011;50749;51.636;4.948;2023-07-08T00:02:08;4.53;;;2.15;;
59189;SDS011;50749;51.636;4.948;2023-07-08T00:04:35;5.70;;;1.85;;
59189;SDS011;50749;51.636;4.948;2023-07-08T00:07:01;6.00;;;2.30;;
59189;SDS011;50749;51.636;4.948;2023-07-08T00:09:27;3.45;;;1.80;;
59189;SDS011;50749;51.636;4.948;2023-07-08T00:11:53;2.88;;;1.80;;
59189;SDS011;50749;51.636;4.948;2023-07-08T00:14:18;3.45;;;2.42;;
59189;SDS011;50749;51.636;4.948;2023-07-08T00:16:44;2.55;;;1.90;;
59189;SDS011;50749;51.636;4.948;2023-07-08T00:19:10;4.05;;;2.13;;
59189;SDS011;50749;51.636;4.948;2023-07-08T00:21:36;4.30;;;2.05;;
59189;SDS011;50749;51.636;4.948;2023-07-08T00:24:02;3.13;;;1.83;;
59189;SDS011;50749;51.636;4.948;2023-07-08T00:26:29;3.58;;;2.03;;
59189;SDS011;50749;51.636;4.948;2023-07-08T00:28:55;5.05;;;2.25;;
59189;SDS011;50749;51.636;4.948;2023-07-08T00:31:25;3.53;;;2.20;;
59189;SDS011;50749;51.636;4.948;2023-07-08T00:33:51;3.75;;;2.00;;
59189;SDS011;50749;51.636;4.948;2023-07-08T00:36:20;3.92;;;2.00;;
59189;SDS011;50749;51.636;4.948;2023-07-08T00:38:47;4.15;;;1.92;;
59189;SDS011;50749;51.636;4.948;2023-07-08T00:43:44;3.08;;;1.77;;
59189;SDS011;50749;51.636;4.948;2023-07-08T00:51:32;4.18;;;1.90;;
59189;SDS011;50749;51.636;4.948;2023-07-08T00:53:58;7.50;;;3.38;;
59189;SDS011;50749;51.636;4.948;2023-07-08T00:56:34;3.45;;;2.00;;
59189;SDS011;50749;51.636;4.948;2023-07-08T00:59:09;3.17;;;1.73;;
59189;SDS011;50749;51.636;4.948;2023-07-08T01:01:43;3.38;;;2.08;;
59189;SDS011;50749;51.636;4.948;2023-07-08T01:04:10;3.03;;;1.77;;
59189;SDS011;50749;51.636;4.948;2023-07-08T01:06:50;3.72;;;2.17;;
59189;SDS011;50749;51.636;4.948;2023-07-08T01:09:24;2.90;;;1.80;;
59189;SDS011;50749;51.636;4.948;2023-07-08T01:11:53;3.28;;;1.88;;
59189;SDS011;50749;51.636;4.948;2023-07-08T01:14:20;2.80;;;1.77;;
59189;SDS011;50749;51.636;4.948;2023-07-08T01:16:49;2.85;;;1.80;;
59189;SDS011;50749;51.636;4.948;2023-07-08T01:19:17;2.78;;;1.85;;
59189;SDS011;50749;51.636;4.948;2023-07-08T01:24:18;4.50;;;2.00;;
59189;SDS011;50749;51.636;4.948;2023-07-08T01:26:44;3.17;;;1.60;;
59189;SDS011;50749;51.636;4.948;2023-07-08T01:29:11;3.10;;;1.95;;
59189;SDS011;50749;51.636;4.948;2023-07-08T01:31:38;2.97;;;1.67;;
59189;SDS011;50749;51.636;4.948;2023-07-08T01:34:04;3.92;;;1.80;;
59189;SDS011;50749;51.636;4.948;2023-07-08T01:36:34;2.58;;;1.58;;
59189;SDS011;50749;51.636;4.948;2023-07-08T01:39:10;3.25;;;1.75;;
59189;SDS011;50749;51.636;4.948;2023-07-08T01:41:38;5.47;;;1.80;;
59189;SDS011;50749;51.636;4.948;2023-07-08T01:44:03;3.70;;;2.22;;
59189;SDS011;50749;51.636;4.948;2023-07-08T01:46:29;3.33;;;1.80;;
59189;SDS011;50749;51.636;4.948;2023-07-08T01:48:57;5.13;;;2.10;;
59189;SDS011;50749;51.636;4.948;2023-07-08T01:51:25;2.78;;;1.73;;
59189;SDS011;50749;51.636;4.948;2023-07-08T01:53:51;2.25;;;1.50;;
59189;SDS011;50749;51.636;4.948;2023-07-08T01:56:17;3.65;;;1.83;;
59189;SDS011;50749;51.636;4.948;2023-07-08T01:58:43;3.78;;;2.10;;
59189;SDS011;50749;51.636;4.948;2023-07-08T02:01:09;2.83;;;1.80;;
59189;SDS011;50749;51.636;4.948;2023-07-08T02:03:35;4.28;;;2.05;;
59189;SDS011;50749;51.636;4.948;2023-07-08T02:06:01;4.32;;;1.80;;
59189;SDS011;50749;51.636;4.948;2023-07-08T02:08:28;4.40;;;1.65;;
59189;SDS011;50749;51.636;4.948;2023-07-08T02:10:56;3.17;;;2.00;;
59189;SDS011;50749;51.636;4.948;2023-07-08T02:13:22;2.40;;;1.65;;
59189;SDS011;50749;51.636;4.948;2023-07-08T02:15:50;2.35;;;1.55;;
59189;SDS011;50749;51.636;4.948;2023-07-08T02:18:16;4.30;;;2.00;;
59189;SDS011;50749;51.636;4.948;2023-07-08T02:20:44;3.55;;;1.83;;
59189;SDS011;50749;51.636;4.948;2023-07-08T02:23:11;3.70;;;2.00;;
59189;SDS011;50749;51.636;4.948;2023-07-08T02:25:37;3.25;;;2.00;;
59189;SDS011;50749;51.636;4.948;2023-07-08T02:28:02;2.80;;;1.70;;
59189;SDS011;50749;51.636;4.948;2023-07-08T02:30:29;3.58;;;1.70;;
59189;SDS011;50749;51.636;4.948;2023-07-08T02:32:54;4.97;;;1.90;;
59189;SDS011;50749;51.636;4.948;2023-07-08T02:35:27;2.40;;;1.50;;
59189;SDS011;50749;51.636;4.948;2023-07-08T02:37:55;2.47;;;1.58;;
59189;SDS011;50749;51.636;4.948;2023-07-08T02:40:22;3.08;;;1.80;;
59189;SDS011;50749;51.636;4.948;2023-07-08T02:42:48;3.15;;;1.85;;
59189;SDS011;50749;51.636;4.948;2023-07-08T02:45:14;2.30;;;1.50;;
59189;SDS011;50749;51.636;4.948;2023-07-08T02:47:40;2.88;;;1.52;;
59189;SDS011;50749;51.636;4.948;2023-07-08T02:50:07;2.78;;;2.00;;
59189;SDS011;50749;51.636;4.948;2023-07-08T02:52:34;5.50;;;1.92;;
59189;SDS011;50749;51.636;4.948;2023-07-08T02:55:00;5.43;;;1.77;;
59189;SDS011;50749;51.636;4.948;2023-07-08T02:57:26;3.55;;;1.60;;
59189;SDS011;50749;51.636;4.948;2023-07-08T02:59:51;3.28;;;1.83;;
59189;SDS011;50749;51.636;4.948;2023-07-08T03:02:17;3.60;;;1.70;;
59189;SDS011;50749;51.636;4.948;2023-07-08T03:04:43;4.38;;;1.77;;
59189;SDS011;50749;51.636;4.948;2023-07-08T03:07:09;3.03;;;1.92;;
59189;SDS011;50749;51.636;4.948;2023-07-08T03:09:40;4.63;;;1.70;;
59189;SDS011;50749;51.636;4.948;2023-07-08T03:12:06;3.47;;;1.63;;
59189;SDS011;50749;51.636;4.948;2023-07-08T03:14:33;4.82;;;1.73;;
59189;SDS011;50749;51.636;4.948;2023-07-08T03:16:59;2.80;;;1.70;;
59189;SDS011;50749;51.636;4.948;2023-07-08T03:19:25;2.38;;;1.80;;
59189;SDS011;50749;51.636;4.948;2023-07-08T03:21:51;2.70;;;1.60;;
59189;SDS011;50749;51.636;4.948;2023-07-08T03:24:17;5.18;;;1.90;;
59189;SDS011;50749;51.636;4.948;2023-07-08T03:26:45;3.88;;;1.80;;
59189;SDS011;50749;51.636;4.948;2023-07-08T03:29:15;3.20;;;1.90;;
59189;SDS011;50749;51.636;4.948;2023-07-08T03:31:43;1.92;;;1.50;;
59189;SDS011;50749;51.636;4.948;2023-07-08T03:34:10;3.70;;;1.88;;
59189;SDS011;50749;51.636;4.948;2023-07-08T03:36:40;2.63;;;1.63;;
59189;SDS011;50749;51.636;4.948;2023-07-08T03:39:14;3.75;;;1.88;;
59189;SDS011;50749;51.636;4.948;2023-07-08T03:41:41;2.38;;;1.50;;
59189;SDS011;50749;51.636;4.948;2023-07-08T03:44:07;2.58;;;2.08;;
59189;SDS011;50749;51.636;4.948;2023-07-08T03:46:32;4.28;;;1.85;;
59189;SDS011;50749;51.636;4.948;2023-07-08T03:48:58;4.10;;;1.63;;
59189;SDS011;50749;51.636;4.948;2023-07-08T03:51:25;2.47;;;1.70;;
59189;SDS011;50749;51.636;4.948;2023-07-08T03:53:54;2.97;;;1.70;;
59189;SDS011;50749;51.636;4.948;2023-07-08T03:56:20;2.95;;;1.60;;
59189;SDS011;50749;51.636;4.948;2023-07-08T03:58:46;4.43;;;2.10;;
59189;SDS011;50749;51.636;4.948;2023-07-08T04:01:18;3.45;;;2.03;;
59189;SDS011;50749;51.636;4.948;2023-07-08T04:03:46;2.80;;;1.67;;
59189;SDS011;50749;51.636;4.948;2023-07-08T04:06:13;2.58;;;1.45;;
59189;SDS011;50749;51.636;4.948;2023-07-08T04:08:40;2.20;;;1.60;;
59189;SDS011;50749;51.636;4.948;2023-07-08T04:11:05;3.13;;;2.00;;
59189;SDS011;50749;51.636;4.948;2023-07-08T04:13:32;1.85;;;1.58;;
59189;SDS011;50749;51.636;4.948;2023-07-08T04:16:01;2.85;;;1.65;;
59189;SDS011;50749;51.636;4.948;2023-07-08T04:18:29;2.95;;;1.80;;
59189;SDS011;50749;51.636;4.948;2023-07-08T04:20:55;4.55;;;1.63;;
59189;SDS011;50749;51.636;4.948;2023-07-08T04:23:24;2.72;;;1.63;;
59189;SDS011;50749;51.636;4.948;2023-07-08T04:25:50;3.03;;;1.83;;
59189;SDS011;50749;51.636;4.948;2023-07-08T04:28:19;3.30;;;1.88;;
59189;SDS011;50749;51.636;4.948;2023-07-08T04:30:45;4.25;;;2.03;;
59189;SDS011;50749;51.636;4.948;2023-07-08T04:33:11;2.80;;;1.70;;
59189;SDS011;50749;51.636;4.948;2023-07-08T04:35:38;6.95;;;1.90;;
59189;SDS011;50749;51.636;4.948;2023-07-08T04:38:06;3.50;;;1.63;;
59189;SDS011;50749;51.636;4.948;2023-07-08T04:40:34;3.63;;;1.75;;
59189;SDS011;50749;51.636;4.948;2023-07-08T04:43:05;4.05;;;1.90;;
59189;SDS011;50749;51.636;4.948;2023-07-08T04:45:32;3.60;;;1.85;;
59189;SDS011;50749;51.636;4.948;2023-07-08T04:47:58;3.35;;;2.10;;
59189;SDS011;50749;51.636;4.948;2023-07-08T04:50:24;2.28;;;1.50;;
59189;SDS011;50749;51.636;4.948;2023-07-08T04:52:50;2.80;;;1.40;;
59189;SDS011;50749;51.636;4.948;2023-07-08T04:55:15;4.60;;;1.80;;
59189;SDS011;50749;51.636;4.948;2023-07-08T04:57:42;2.80;;;2.25;;
59189;SDS011;50749;51.636;4.948;2023-07-08T05:00:09;4.10;;;2.25;;
59189;SDS011;50749;51.636;4.948;2023-07-08T05:02:41;2.30;;;1.60;;
59189;SDS011;50749;51.636;4.948;2023-07-08T05:05:06;3.28;;;1.58;;
59189;SDS011;50749;51.636;4.948;2023-07-08T05:07:33;5.82;;;1.75;;
59189;SDS011;50749;51.636;4.948;2023-07-08T05:09:58;3.45;;;1.55;;
59189;SDS011;50749;51.636;4.948;2023-07-08T05:12:25;2.28;;;1.50;;
59189;SDS011;50749;51.636;4.948;2023-07-08T05:14:51;2.85;;;1.50;;
59189;SDS011;50749;51.636;4.948;2023-07-08T05:17:17;2.22;;;1.50;;
59189;SDS011;50749;51.636;4.948;2023-07-08T05:19:43;3.10;;;1.88;;
59189;SDS011;50749;51.636;4.948;2023-07-08T05:22:11;5.03;;;1.40;;
59189;SDS011;50749;51.636;4.948;2023-07-08T05:24:37;2.65;;;1.45;;
59189;SDS011;50749;51.636;4.948;2023-07-08T05:27:04;3.03;;;1.52;;
59189;SDS011;50749;51.636;4.948;2023-07-08T05:29:29;2.50;;;1.73;;
59189;SDS011;50749;51.636;4.948;2023-07-08T05:31:55;3.13;;;1.48;;
59189;SDS011;50749;51.636;4.948;2023-07-08T05:34:21;3.30;;;1.80;;
59189;SDS011;50749;51.636;4.948;2023-07-08T05:36:47;2.72;;;1.60;;
59189;SDS011;50749;51.636;4.948;2023-07-08T05:39:12;1.80;;;1.30;;
59189;SDS011;50749;51.636;4.948;2023-07-08T05:41:38;2.13;;;1.33;;
59189;SDS011;50749;51.636;4.948;2023-07-08T05:44:04;2.03;;;1.30;;
59189;SDS011;50749;51.636;4.948;2023-07-08T05:46:30;2.90;;;1.20;;
59189;SDS011;50749;51.636;4.948;2023-07-08T05:48:55;2.17;;;1.25;;
59189;SDS011;50749;51.636;4.948;2023-07-08T05:51:21;2.30;;;1.40;;
59189;SDS011;50749;51.636;4.948;2023-07-08T05:53:47;3.78;;;1.92;;
59189;SDS011;50749;51.636;4.948;2023-07-08T05:56:13;2.95;;;1.60;;
59189;SDS011;50749;51.636;4.948;2023-07-08T05:58:38;2.80;;;1.40;;
59189;SDS011;50749;51.636;4.948;2023-07-08T06:01:04;6.15;;;1.70;;
59189;SDS011;50749;51.636;4.948;2023-07-08T06:03:30;5.97;;;2.03;;
59189;SDS011;50749;51.636;4.948;2023-07-08T06:05:56;6.18;;;2.25;;
59189;SDS011;50749;51.636;4.948;2023-07-08T06:08:22;3.80;;;1.77;;
59189;SDS011;50749;51.636;4.948;2023-07-08T06:10:49;3.25;;;1.73;;
59189;SDS011;50749;51.636;4.948;2023-07-08T06:13:15;8.95;;;2.38;;
59189;SDS011;50749;51.636;4.948;2023-07-08T06:15:41;4.57;;;1.70;;
59189;SDS011;50749;51.636;4.948;2023-07-08T06:18:07;10.38;;;1.88;;
59189;SDS011;50749;51.636;4.948;2023-07-08T06:20:33;5.72;;;2.85;;
59189;SDS011;50749;51.636;4.948;2023-07-08T06:22:59;5.60;;;2.35;;
59189;SDS011;50749;51.636;4.948;2023-07-08T06:25:25;7.40;;;2.13;;
59189;SDS011;50749;51.636;4.948;2023-07-08T06:27:50;6.63;;;2.33;;
59189;SDS011;50749;51.636;4.948;2023-07-08T06:30:16;8.10;;;2.42;;
59189;SDS011;50749;51.636;4.948;2023-07-08T06:32:42;6.07;;;2.42;;
59189;SDS011;50749;51.636;4.948;2023-07-08T06:35:08;4.05;;;2.20;;
59189;SDS011;50749;51.636;4.948;2023-07-08T06:37:33;4.78;;;2.30;;
59189;SDS011;50749;51.636;4.948;2023-07-08T06:39:59;6.07;;;2.33;;
59189;SDS011;50749;51.636;4.948;2023-07-08T06:42:25;5.45;;;2.17;;
59189;SDS011;50749;51.636;4.948;2023-07-08T06:44:51;7.18;;;2.08;;
59189;SDS011;50749;51.636;4.948;2023-07-08T06:47:20;4.25;;;2.40;;
59189;SDS011;50749;51.636;4.948;2023-07-08T06:49:47;4.32;;;2.33;;
59189;SDS011;50749;51.636;4.948;2023-07-08T06:52:13;6.55;;;2.65;;
59189;SDS011;50749;51.636;4.948;2023-07-08T06:54:40;4.88;;;2.30;;
59189;SDS011;50749;51.636;4.948;2023-07-08T06:57:05;6.68;;;2.72;;
59189;SDS011;50749;51.636;4.948;2023-07-08T06:59:32;7.68;;;2.72;;
59189;SDS011;50749;51.636;4.948;2023-07-08T07:01:58;9.90;;;2.53;;
59189;SDS011;50749;51.636;4.948;2023-07-08T07:04:24;6.05;;;2.78;;
59189;SDS011;50749;51.636;4.948;2023-07-08T07:06:50;6.78;;;2.15;;
59189;SDS011;50749;51.636;4.948;2023-07-08T07:09:16;11.43;;;4.57;;
59189;SDS011;50749;51.636;4.948;2023-07-08T07:11:41;7.40;;;2.42;;
59189;SDS011;50749;51.636;4.948;2023-07-08T07:14:07;8.32;;;2.88;;
59189;SDS011;50749;51.636;4.948;2023-07-08T07:16:34;9.38;;;3.00;;
59189;SDS011;50749;51.636;4.948;2023-07-08T07:18:59;7.43;;;2.90;;
59189;SDS011;50749;51.636;4.948;2023-07-08T07:21:25;5.60;;;2.40;;
59189;SDS011;50749;51.636;4.948;2023-07-08T07:23:51;9.25;;;2.47;;
59189;SDS011;50749;51.636;4.948;2023-07-08T07:26:16;7.03;;;2.97;;
59189;SDS011;50749;51.636;4.948;2023-07-08T07:28:42;5.22;;;2.90;;
59189;SDS011;50749;51.636;4.948;2023-07-08T07:31:08;5.38;;;2.83;;
59189;SDS011;50749;51.636;4.948;2023-07-08T07:33:36;5.38;;;3.13;;
59189;SDS011;50749;51.636;4.948;2023-07-08T07:36:02;7.78;;;3.20;;
59189;SDS011;50749;51.636;4.948;2023-07-08T07:38:29;4.68;;;2.90;;
59189;SDS011;50749;51.636;4.948;2023-07-08T07:40:55;5.40;;;2.90;;
59189;SDS011;50749;51.636;4.948;2023-07-08T07:43:22;8.55;;;2.95;;
59189;SDS011;50749;51.636;4.948;2023-07-08T07:45:50;8.73;;;3.22;;
59189;SDS011;50749;51.636;4.948;2023-07-08T07:48:18;4.70;;;2.78;;
59189;SDS011;50749;51.636;4.948;2023-07-08T07:50:48;5.40;;;3.22;;
59189;SDS011;50749;51.636;4.948;2023-07-08T07:53:15;5.40;;;3.20;;
59189;SDS011;50749;51.636;4.948;2023-07-08T07:55:40;9.05;;;3.25;;
59189;SDS011;50749;51.636;4.948;2023-07-08T07:58:06;4.72;;;2.88;;
59189;SDS011;50749;51.636;4.948;2023-07-08T08:00:33;5.28;;;3.25;;
59189;SDS011;50749;51.636;4.948;2023-07-08T08:02:59;7.90;;;3.55;;
59189;SDS011;50749;51.636;4.948;2023-07-08T08:05:25;5.78;;;2.95;;
59189;SDS011;50749;51.636;4.948;2023-07-08T08:07:51;8.13;;;3.47;;
59189;SDS011;50749;51.636;4.948;2023-07-08T08:10:16;8.07;;;3.03;;
59189;SDS011;50749;51.636;4.948;2023-07-08T08:12:42;7.13;;;2.92;;
59189;SDS011;50749;51.636;4.948;2023-07-08T08:15:08;7.30;;;3.10;;
59189;SDS011;50749;51.636;4.948;2023-07-08T08:17:34;6.30;;;3.38;;
59189;SDS011;50749;51.636;4.948;2023-07-08T08:19:59;6.68;;;3.35;;
59189;SDS011;50749;51.636;4.948;2023-07-08T08:22:25;6.57;;;3.05;;
59189;SDS011;50749;51.636;4.948;2023-07-08T08:24:51;4.93;;;2.90;;
59189;SDS011;50749;51.636;4.948;2023-07-08T08:27:17;6.10;;;2.80;;
59189;SDS011;50749;51.636;4.948;2023-07-08T08:29:43;5.00;;;2.53;;
59189;SDS011;50749;51.636;4.948;2023-07-08T08:32:09;5.93;;;3.17;;
59189;SDS011;50749;51.636;4.948;2023-07-08T08:34:34;5.57;;;3.33;;
59189;SDS011;50749;51.636;4.948;2023-07-08T08:37:00;5.60;;;3.42;;
59189;SDS011;50749;51.636;4.948;2023-07-08T08:39:26;5.03;;;2.55;;
59189;SDS011;50749;51.636;4.948;2023-07-08T08:41:54;4.18;;;3.13;;
59189;SDS011;50749;51.636;4.948;2023-07-08T08:44:31;4.68;;;2.90;;
59189;SDS011;50749;51.636;4.948;2023-07-08T08:47:06;10.52;;;3.50;;
59189;SDS011;50749;51.636;4.948;2023-07-08T08:49:47;4.57;;;2.92;;
59189;SDS011;50749;51.636;4.948;2023-07-08T08:52:19;4.82;;;3.10;;
59189;SDS011;50749;51.636;4.948;2023-07-08T08:54:45;5.43;;;3.13;;
59189;SDS011;50749;51.636;4.948;2023-07-08T08:59:38;4.72;;;3.00;;
59189;SDS011;50749;51.636;4.948;2023-07-08T09:04:58;4.85;;;3.03;;
59189;SDS011;50749;51.636;4.948;2023-07-08T09:07:31;7.65;;;3.20;;
59189;SDS011;50749;51.636;4.948;2023-07-08T09:11:04;5.13;;;3.95;;
59189;SDS011;50749;51.636;4.948;2023-07-08T09:13:24;6.47;;;2.97;;
59189;SDS011;50749;51.636;4.948;2023-07-08T09:15:54;5.25;;;3.30;;
59189;SDS011;50749;51.636;4.948;2023-07-08T09:18:37;5.93;;;3.47;;
59189;SDS011;50749;51.636;4.948;2023-07-08T09:21:19;4.95;;;3.00;;
59189;SDS011;50749;51.636;4.948;2023-07-08T09:23:50;6.97;;;3.42;;
59189;SDS011;50749;51.636;4.948;2023-07-08T09:26:21;7.60;;;3.25;;
59189;SDS011;50749;51.636;4.948;2023-07-08T09:28:49;6.05;;;2.80;;
59189;SDS011;50749;51.636;4.948;2023-07-08T09:34:36;4.45;;;3.00;;
59189;SDS011;50749;51.636;4.948;2023-07-08T09:36:49;7.78;;;3.70;;
59189;SDS011;50749;51.636;4.948;2023-07-08T09:39:17;4.78;;;3.25;;
59189;SDS011;50749;51.636;4.948;2023-07-08T09:41:46;7.30;;;3.55;;
59189;SDS011;50749;51.636;4.948;2023-07-08T09:46:41;5.10;;;3.15;;
59189;SDS011;50749;51.636;4.948;2023-07-08T09:49:30;4.85;;;3.13;;
59189;SDS011;50749;51.636;4.948;2023-07-08T09:51:56;6.32;;;3.72;;
59189;SDS011;50749;51.636;4.948;2023-07-08T09:54:23;6.47;;;3.90;;
59189;SDS011;50749;51.636;4.948;2023-07-08T09:59:30;5.85;;;3.67;;
59189;SDS011;50749;51.636;4.948;2023-07-08T10:02:01;6.45;;;3.88;;
59189;SDS011;50749;51.636;4.948;2023-07-08T10:04:29;7.15;;;4.03;;
59189;SDS011;50749;51.636;4.948;2023-07-08T10:06:55;7.68;;;4.05;;
59189;SDS011;50749;51.636;4.948;2023-07-08T10:09:23;6.40;;;3.97;;
59189;SDS011;50749;51.636;4.948;2023-07-08T10:11:51;8.10;;;4.00;;
59189;SDS011;50749;51.636;4.948;2023-07-08T10:14:34;9.50;;;4.15;;
59189;SDS011;50749;51.636;4.948;2023-07-08T10:17:04;6.97;;;3.95;;
59189;SDS011;50749;51.636;4.948;2023-07-08T10:19:30;6.18;;;3.83;;
59189;SDS011;50749;51.636;4.948;2023-07-08T10:27:17;6.45;;;3.67;;
59189;SDS011;50749;51.636;4.948;2023-07-08T10:35:15;6.95;;;3.63;;
59189;SDS011;50749;51.636;4.948;2023-07-08T10:37:48;7.65;;;4.13;;
59189;SDS011;50749;51.636;4.948;2023-07-08T10:40:48;6.88;;;4.20;;
59189;SDS011;50749;51.636;4.948;2023-07-08T10:45:58;7.13;;;4.55;;
59189;SDS011;50749;51.636;4.948;2023-07-08T10:51:45;6.05;;;4.05;;
59189;SDS011;50749;51.636;4.948;2023-07-08T10:56:59;7.18;;;4.15;;
59189;SDS011;50749;51.636;4.948;2023-07-08T10:59:45;7.85;;;4.50;;
59189;SDS011;50749;51.636;4.948;2023-07-08T11:08:15;7.30;;;4.53;;
59189;SDS011;50749;51.636;4.948;2023-07-08T11:10:56;6.88;;;4.10;;
59189;SDS011;50749;51.636;4.948;2023-07-08T11:13:34;7.45;;;4.53;;
59189;SDS011;50749;51.636;4.948;2023-07-08T11:16:13;7.40;;;4.38;;
59189;SDS011;50749;51.636;4.948;2023-07-08T11:18:48;7.30;;;3.70;;
59189;SDS011;50749;51.636;4.948;2023-07-08T11:21:24;8.77;;;4.30;;
59189;SDS011;50749;51.636;4.948;2023-07-08T11:26:54;7.78;;;4.15;;
59189;SDS011;50749;51.636;4.948;2023-07-08T11:29:45;8.25;;;4.30;;
59189;SDS011;50749;51.636;4.948;2023-07-08T11:32:33;8.95;;;4.35;;
59189;SDS011;50749;51.636;4.948;2023-07-08T11:35:02;8.05;;;3.90;;
59189;SDS011;50749;51.636;4.948;2023-07-08T11:37:30;8.13;;;4.07;;
59189;SDS011;50749;51.636;4.948;2023-07-08T11:39:59;11.43;;;4.00;;
59189;SDS011;50749;51.636;4.948;2023-07-08T11:45:07;7.70;;;4.20;;
59189;SDS011;50749;51.636;4.948;2023-07-08T11:50:25;7.63;;;3.97;;
59189;SDS011;50749;51.636;4.948;2023-07-08T11:52:58;6.70;;;4.10;;
59189;SDS011;50749;51.636;4.948;2023-07-08T11:55:27;6.90;;;4.05;;
59189;SDS011;50749;51.636;4.948;2023-07-08T11:58:02;7.68;;;4.50;;
59189;SDS011;50749;51.636;4.948;2023-07-08T12:00:32;9.48;;;4.30;;
59189;SDS011;50749;51.636;4.948;2023-07-08T12:03:03;8.45;;;4.78;;
59189;SDS011;50749;51.636;4.948;2023-07-08T12:05:44;7.28;;;4.10;;
59189;SDS011;50749;51.636;4.948;2023-07-08T12:08:11;7.75;;;4.57;;
59189;SDS011;50749;51.636;4.948;2023-07-08T12:10:52;8.25;;;4.15;;
59189;SDS011;50749;51.636;4.948;2023-07-08T12:13:19;5.40;;;3.90;;
59189;SDS011;50749;51.636;4.948;2023-07-08T12:15:48;6.97;;;3.92;;
59189;SDS011;50749;51.636;4.948;2023-07-08T12:18:15;6.55;;;3.83;;
59189;SDS011;50749;51.636;4.948;2023-07-08T12:20:57;6.65;;;3.72;;
59189;SDS011;50749;51.636;4.948;2023-07-08T12:23:26;6.40;;;3.85;;
59189;SDS011;50749;51.636;4.948;2023-07-08T12:25:53;4.82;;;3.58;;
59189;SDS011;50749;51.636;4.948;2023-07-08T12:28:20;8.32;;;4.10;;
59189;SDS011;50749;51.636;4.948;2023-07-08T12:30:48;5.30;;;3.47;;
59189;SDS011;50749;51.636;4.948;2023-07-08T12:33:15;9.30;;;3.78;;
59189;SDS011;50749;51.636;4.948;2023-07-08T12:35:47;7.05;;;3.58;;
59189;SDS011;50749;51.636;4.948;2023-07-08T12:40:54;6.57;;;4.55;;
59189;SDS011;50749;51.636;4.948;2023-07-08T12:43:22;7.00;;;3.90;;
59189;SDS011;50749;51.636;4.948;2023-07-08T12:45:48;6.47;;;4.22;;
59189;SDS011;50749;51.636;4.948;2023-07-08T12:48:13;8.55;;;4.10;;
59189;SDS011;50749;51.636;4.948;2023-07-08T12:50:39;6.93;;;3.78;;
59189;SDS011;50749;51.636;4.948;2023-07-08T12:53:05;6.13;;;3.85;;
59189;SDS011;50749;51.636;4.948;2023-07-08T12:55:35;7.35;;;3.58;;
59189;SDS011;50749;51.636;4.948;2023-07-08T12:58:03;5.18;;;3.50;;
59189;SDS011;50749;51.636;4.948;2023-07-08T13:00:32;6.50;;;4.00;;
59189;SDS011;50749;51.636;4.948;2023-07-08T13:05:40;7.10;;;3.92;;
59189;SDS011;50749;51.636;4.948;2023-07-08T13:08:11;6.38;;;3.83;;
59189;SDS011;50749;51.636;4.948;2023-07-08T13:10:38;5.78;;;3.70;;
59189;SDS011;50749;51.636;4.948;2023-07-08T13:13:07;5.65;;;3.63;;
59189;SDS011;50749;51.636;4.948;2023-07-08T13:15:38;5.18;;;3.08;;
59189;SDS011;50749;51.636;4.948;2023-07-08T13:18:07;7.00;;;4.45;;
59189;SDS011;50749;51.636;4.948;2023-07-08T13:20:41;6.43;;;3.45;;
59189;SDS011;50749;51.636;4.948;2023-07-08T13:23:09;7.25;;;3.55;;
59189;SDS011;50749;51.636;4.948;2023-07-08T13:25:36;12.52;;;4.00;;
59189;SDS011;50749;51.636;4.948;2023-07-08T13:28:19;6.18;;;3.67;;
59189;SDS011;50749;51.636;4.948;2023-07-08T13:31:02;7.82;;;3.72;;
59189;SDS011;50749;51.636;4.948;2023-07-08T13:33:38;5.93;;;3.55;;
59189;SDS011;50749;51.636;4.948;2023-07-08T13:36:09;6.60;;;3.25;;
59189;SDS011;50749;51.636;4.948;2023-07-08T13:38:37;7.70;;;3.92;;
59189;SDS011;50749;51.636;4.948;2023-07-08T13:41:07;5.18;;;3.20;;
59189;SDS011;50749;51.636;4.948;2023-07-08T13:43:35;6.78;;;4.28;;
59189;SDS011;50749;51.636;4.948;2023-07-08T13:46:03;8.77;;;3.70;;
59189;SDS011;50749;51.636;4.948;2023-07-08T13:48:30;6.72;;;3.80;;
59189;SDS011;50749;51.636;4.948;2023-07-08T13:51:03;5.97;;;3.53;;
59189;SDS011;50749;51.636;4.948;2023-07-08T13:56:12;5.13;;;3.28;;
59189;SDS011;50749;51.636;4.948;2023-07-08T13:58:42;6.72;;;3.80;;
59189;SDS011;50749;51.636;4.948;2023-07-08T14:01:14;7.78;;;3.53;;
59189;SDS011;50749;51.636;4.948;2023-07-08T14:03:46;5.90;;;3.38;;
59189;SDS011;50749;51.636;4.948;2023-07-08T14:06:15;6.40;;;3.15;;
59189;SDS011;50749;51.636;4.948;2023-07-08T14:08:42;5.47;;;3.40;;
59189;SDS011;50749;51.636;4.948;2023-07-08T14:11:08;5.72;;;3.58;;
59189;SDS011;50749;51.636;4.948;2023-07-08T14:13:34;5.53;;;3.67;;
59189;SDS011;50749;51.636;4.948;2023-07-08T14:16:00;6.07;;;3.22;;
59189;SDS011;50749;51.636;4.948;2023-07-08T14:18:29;7.45;;;3.58;;
59189;SDS011;50749;51.636;4.948;2023-07-08T14:20:55;7.90;;;3.60;;
59189;SDS011;50749;51.636;4.948;2023-07-08T14:23:21;5.30;;;3.08;;
59189;SDS011;50749;51.636;4.948;2023-07-08T14:25:47;6.00;;;3.50;;
59189;SDS011;50749;51.636;4.948;2023-07-08T14:28:13;7.22;;;3.03;;
59189;SDS011;50749;51.636;4.948;2023-07-08T14:30:40;8.10;;;3.65;;
59189;SDS011;50749;51.636;4.948;2023-07-08T14:33:12;7.63;;;3.15;;
59189;SDS011;50749;51.636;4.948;2023-07-08T14:35:38;5.45;;;3.38;;
59189;SDS011;50749;51.636;4.948;2023-07-08T14:38:09;6.47;;;3.30;;
59189;SDS011;50749;51.636;4.948;2023-07-08T14:40:37;4.35;;;2.75;;
59189;SDS011;50749;51.636;4.948;2023-07-08T14:43:13;5.13;;;3.20;;
59189;SDS011;50749;51.636;4.948;2023-07-08T14:45:56;6.18;;;3.05;;
59189;SDS011;50749;51.636;4.948;2023-07-08T14:48:24;6.05;;;3.25;;
59189;SDS011;50749;51.636;4.948;2023-07-08T14:50:50;6.82;;;3.78;;
59189;SDS011;50749;51.636;4.948;2023-07-08T14:53:19;5.65;;;3.05;;
59189;SDS011;50749;51.636;4.948;2023-07-08T14:55:46;5.90;;;3.25;;
59189;SDS011;50749;51.636;4.948;2023-07-08T14:58:32;5.22;;;3.00;;
59189;SDS011;50749;51.636;4.948;2023-07-08T15:00:59;5.20;;;3.20;;
59189;SDS011;50749;51.636;4.948;2023-07-08T15:03:28;5.75;;;3.40;;
59189;SDS011;50749;51.636;4.948;2023-07-08T15:05:54;4.97;;;3.15;;
59189;SDS011;50749;51.636;4.948;2023-07-08T15:08:19;6.25;;;3.20;;
59189;SDS011;50749;51.636;4.948;2023-07-08T15:10:49;6.43;;;3.17;;
59189;SDS011;50749;51.636;4.948;2023-07-08T15:13:17;6.70;;;3.38;;
59189;SDS011;50749;51.636;4.948;2023-07-08T15:15:45;5.32;;;3.33;;
59189;SDS011;50749;51.636;4.948;2023-07-08T15:18:14;5.07;;;2.75;;
59189;SDS011;50749;51.636;4.948;2023-07-08T15:20:42;6.18;;;3.33;;
59189;SDS011;50749;51.636;4.948;2023-07-08T15:23:11;6.78;;;3.20;;
59189;SDS011;50749;51.636;4.948;2023-07-08T15:25:38;4.93;;;3.08;;
59189;SDS011;50749;51.636;4.948;2023-07-08T15:28:07;4.70;;;2.83;;
59189;SDS011;50749;51.636;4.948;2023-07-08T15:30:40;4.82;;;2.80;;
59189;SDS011;50749;51.636;4.948;2023-07-08T15:33:08;5.80;;;2.75;;
59189;SDS011;50749;51.636;4.948;2023-07-08T15:35:34;4.50;;;2.70;;
59189;SDS011;50749;51.636;4.948;2023-07-08T15:38:00;5.35;;;3.00;;
59189;SDS011;50749;51.636;4.948;2023-07-08T15:40:31;4.78;;;2.88;;
59189;SDS011;50749;51.636;4.948;2023-07-08T15:42:58;6.95;;;3.00;;
59189;SDS011;50749;51.636;4.948;2023-07-08T15:45:30;6.10;;;3.22;;
59189;SDS011;50749;51.636;4.948;2023-07-08T15:47:58;6.68;;;2.80;;
59189;SDS011;50749;51.636;4.948;2023-07-08T15:50:26;6.72;;;3.15;;
59189;SDS011;50749;51.636;4.948;2023-07-08T15:52:53;5.15;;;3.10;;
59189;SDS011;50749;51.636;4.948;2023-07-08T15:55:34;4.78;;;2.92;;
59189;SDS011;50749;51.636;4.948;2023-07-08T16:00:54;8.00;;;3.28;;
59189;SDS011;50749;51.636;4.948;2023-07-08T16:03:28;5.32;;;2.63;;
59189;SDS011;50749;51.636;4.948;2023-07-08T16:08:21;4.32;;;2.45;;